sensor_id;sensor_type;location;lat;lon;timestamp;pressure;altitude;pressure_sealevel;temperature;humidity
21433;BME280;18592;49.708;10.900;2023-07-02T00:00:36;97815.72;;;23.50;46.86
21433;BME280;18592;49.708;10.900;2023-07-02T00:02:38;97812.50;;;23.48;46.77
21433;BME280;18592;49.708;10.900;2023-07-02T00:04:47;97812.50;;;23.48;47.04
21433;BME280;18592;49.708;10.900;2023-07-02T00:06:48;97814.09;;;23.49;47.05
21433;BME280;18592;49.708;10.900;2023-07-02T00:08:49;97806.13;;;23.47;46.63
21433;BME280;18592;49.708;10.900;2023-07-02T00:10:50;97812.00;;;23.46;47.10
21433;BME280;18592;49.708;10.900;2023-07-02T00:12:50;97814.34;;;23.44;47.06
21433;BME280;18592;49.708;10.900;2023-07-02T00:14:50;97815.53;;;23.43;47.02
21433;BME280;18592;49.708;10.900;2023-07-02T00:16:58;97820.59;;;23.41;47.12
21433;BME280;18592;49.708;10.900;2023-07-02T00:18:59;97820.16;;;23.38;47.07
21433;BME280;18592;49.708;10.900;2023-07-02T00:21:00;97816.91;;;23.36;47.03
21433;BME280;18592;49.708;10.900;2023-07-02T00:23:04;97818.88;;;23.36;47.24
21433;BME280;18592;49.708;10.900;2023-07-02T00:25:04;97814.81;;;23.33;47.03
21433;BME280;18592;49.708;10.900;2023-07-02T00:27:09;97823.16;;;23.33;47.14
21433;BME280;18592;49.708;10.900;2023-07-02T00:29:10;97823.50;;;23.32;47.30
21433;BME280;18592;49.708;10.900;2023-07-02T00:31:19;97827.81;;;23.29;47.21
21433;BME280;18592;49.708;10.900;2023-07-02T00:33:19;97823.75;;;23.27;47.28
21433;BME280;18592;49.708;10.900;2023-07-02T00:35:21;97825.72;;;23.26;47.26
21433;BME280;18592;49.708;10.900;2023-07-02T00:37:37;97830.84;;;23.24;47.12
21433;BME280;18592;49.708;10.900;2023-07-02T00:39:52;97827.59;;;23.22;47.48
21433;BME280;18592;49.708;10.900;2023-07-02T00:41:53;97835.47;;;23.20;47.35
21433;BME280;18592;49.708;10.900;2023-07-02T00:43:53;97837.78;;;23.18;47.24
21433;BME280;18592;49.708;10.900;2023-07-02T00:46:01;97840.13;;;23.16;47.30
21433;BME280;18592;49.708;10.900;2023-07-02T00:48:04;97837.66;;;23.15;47.45
21433;BME280;18592;49.708;10.900;2023-07-02T00:50:05;97835.25;;;23.13;47.53
21433;BME280;18592;49.708;10.900;2023-07-02T00:52:06;97832.84;;;23.12;47.41
21433;BME280;18592;49.708;10.900;2023-07-02T00:54:07;97835.13;;;23.10;47.45
21433;BME280;18592;49.708;10.900;2023-07-02T00:56:09;97831.06;;;23.07;47.46
21433;BME280;18592;49.708;10.900;2023-07-02T00:58:09;97834.59;;;23.04;47.89
21433;BME280;18592;49.708;10.900;2023-07-02T01:00:10;97838.88;;;23.02;47.83
21433;BME280;18592;49.708;10.900;2023-07-02T01:02:11;97846.41;;;23.01;47.93
21433;BME280;18592;49.708;10.900;2023-07-02T01:04:13;97840.38;;;22.99;48.12
21433;BME280;18592;49.708;10.900;2023-07-02T01:06:14;97846.28;;;22.98;47.99
21433;BME280;18592;49.708;10.900;2023-07-02T01:08:15;97851.38;;;22.96;48.07
21433;BME280;18592;49.708;10.900;2023-07-02T01:10:23;97858.00;;;22.91;48.40
21433;BME280;18592;49.708;10.900;2023-07-02T01:12:24;97854.03;;;22.92;48.42
21433;BME280;18592;49.708;10.900;2023-07-02T01:14:28;97854.41;;;22.91;48.31
21433;BME280;18592;49.708;10.900;2023-07-02T01:16:38;97846.75;;;22.88;48.33
21433;BME280;18592;49.708;10.900;2023-07-02T01:18:43;97852.31;;;22.88;48.16
21433;BME280;18592;49.708;10.900;2023-07-02T01:20:44;97850.69;;;22.87;48.21
21433;BME280;18592;49.708;10.900;2023-07-02T01:22:44;97851.03;;;22.85;48.48
21433;BME280;18592;49.708;10.900;2023-07-02T01:24:45;97855.78;;;22.85;48.44
21433;BME280;18592;49.708;10.900;2023-07-02T01:26:51;97853.34;;;22.83;48.87
21433;BME280;18592;49.708;10.900;2023-07-02T01:28:52;97848.94;;;22.82;48.57
21433;BME280;18592;49.708;10.900;2023-07-02T01:30:52;97850.94;;;22.82;48.56
21433;BME280;18592;49.708;10.900;2023-07-02T01:32:53;97849.31;;;22.81;48.77
21433;BME280;18592;49.708;10.900;2023-07-02T01:34:53;97854.50;;;22.82;48.56
21433;BME280;18592;49.708;10.900;2023-07-02T01:36:54;97848.50;;;22.80;48.76
21433;BME280;18592;49.708;10.900;2023-07-02T01:38:54;97851.25;;;22.80;48.74
21433;BME280;18592;49.708;10.900;2023-07-02T01:41:10;97853.59;;;22.78;48.75
21433;BME280;18592;49.708;10.900;2023-07-02T01:43:12;97849.19;;;22.77;48.89
21433;BME280;18592;49.708;10.900;2023-07-02T01:45:12;97857.88;;;22.75;48.88
21433;BME280;18592;49.708;10.900;2023-07-02T01:47:13;97857.06;;;22.75;48.78
21433;BME280;18592;49.708;10.900;2023-07-02T01:49:17;97854.63;;;22.73;48.85
21433;BME280;18592;49.708;10.900;2023-07-02T01:51:18;97855.44;;;22.74;48.87
21433;BME280;18592;49.708;10.900;2023-07-02T01:53:18;97864.47;;;22.71;48.87
21433;BME280;18592;49.708;10.900;2023-07-02T01:55:19;97860.06;;;22.70;48.71
21433;BME280;18592;49.708;10.900;2023-07-02T01:57:30;97862.03;;;22.69;48.81
21433;BME280;18592;49.708;10.900;2023-07-02T01:59:31;97869.91;;;22.67;48.92
21433;BME280;18592;49.708;10.900;2023-07-02T02:01:32;97867.03;;;22.64;48.98
21433;BME280;18592;49.708;10.900;2023-07-02T02:03:33;97872.59;;;22.64;48.75
21433;BME280;18592;49.708;10.900;2023-07-02T02:05:33;97870.13;;;22.62;48.75
21433;BME280;18592;49.708;10.900;2023-07-02T02:07:33;97875.19;;;22.60;48.93
21433;BME280;18592;49.708;10.900;2023-07-02T02:09:35;97879.47;;;22.58;49.13
21433;BME280;18592;49.708;10.900;2023-07-02T02:11:40;97877.84;;;22.57;48.85
21433;BME280;18592;49.708;10.900;2023-07-02T02:13:41;97882.94;;;22.55;48.94
21433;BME280;18592;49.708;10.900;2023-07-02T02:15:41;97882.94;;;22.55;48.81
21433;BME280;18592;49.708;10.900;2023-07-02T02:17:41;97881.66;;;22.52;49.25
21433;BME280;18592;49.708;10.900;2023-07-02T02:19:43;97872.88;;;22.50;49.10
21433;BME280;18592;49.708;10.900;2023-07-02T02:21:44;97869.28;;;22.50;49.34
21433;BME280;18592;49.708;10.900;2023-07-02T02:23:44;97865.22;;;22.47;49.04
21433;BME280;18592;49.708;10.900;2023-07-02T02:25:44;97874.25;;;22.44;48.92
21433;BME280;18592;49.708;10.900;2023-07-02T02:27:48;97887.34;;;22.44;49.16
21433;BME280;18592;49.708;10.900;2023-07-02T02:29:48;97876.47;;;22.39;48.89
21433;BME280;18592;49.708;10.900;2023-07-02T02:31:48;97877.25;;;22.39;49.14
21433;BME280;18592;49.708;10.900;2023-07-02T02:33:49;97876.78;;;22.37;49.08
21433;BME280;18592;49.708;10.900;2023-07-02T02:35:50;97869.13;;;22.34;49.30
21433;BME280;18592;49.708;10.900;2023-07-02T02:37:51;97861.97;;;22.33;49.30
21433;BME280;18592;49.708;10.900;2023-07-02T02:39:52;97868.22;;;22.30;49.04
21433;BME280;18592;49.708;10.900;2023-07-02T02:41:53;97873.31;;;22.28;49.22
21433;BME280;18592;49.708;10.900;2023-07-02T02:43:55;97884.41;;;22.28;48.81
21433;BME280;18592;49.708;10.900;2023-07-02T02:46:11;97879.19;;;22.27;49.05
21433;BME280;18592;49.708;10.900;2023-07-02T02:48:13;97880.69;;;22.24;49.33
21433;BME280;18592;49.708;10.900;2023-07-02T02:50:14;97879.91;;;22.24;49.10
21433;BME280;18592;49.708;10.900;2023-07-02T02:52:14;97886.94;;;22.21;49.31
21433;BME280;18592;49.708;10.900;2023-07-02T02:54:15;97891.22;;;22.19;49.16
21433;BME280;18592;49.708;10.900;2023-07-02T02:56:16;97887.94;;;22.17;48.99
21433;BME280;18592;49.708;10.900;2023-07-02T02:58:16;97883.91;;;22.14;49.21
21433;BME280;18592;49.708;10.900;2023-07-02T03:00:17;97885.06;;;22.13;49.39
21433;BME280;18592;49.708;10.900;2023-07-02T03:02:18;97882.28;;;22.13;49.34
21433;BME280;18592;49.708;10.900;2023-07-02T03:04:18;97890.16;;;22.11;49.17
21433;BME280;18592;49.708;10.900;2023-07-02T03:06:19;97884.94;;;22.09;49.07
21433;BME280;18592;49.708;10.900;2023-07-02T03:08:19;97894.75;;;22.07;49.26
21433;BME280;18592;49.708;10.900;2023-07-02T03:10:20;97895.09;;;22.05;49.50
21433;BME280;18592;49.708;10.900;2023-07-02T03:12:35;97903.28;;;22.02;49.37
21433;BME280;18592;49.708;10.900;2023-07-02T03:14:35;97895.31;;;22.00;49.32
21433;BME280;18592;49.708;10.900;2023-07-02T03:16:36;97904.31;;;21.97;49.26
21433;BME280;18592;49.708;10.900;2023-07-02T03:18:37;97896.81;;;21.98;49.51
21433;BME280;18592;49.708;10.900;2023-07-02T03:20:37;97897.50;;;21.95;49.48
21433;BME280;18592;49.708;10.900;2023-07-02T03:22:37;97904.19;;;21.94;49.37
21433;BME280;18592;49.708;10.900;2023-07-02T03:24:38;97904.53;;;21.92;49.57
21433;BME280;18592;49.708;10.900;2023-07-02T03:26:42;97910.75;;;21.89;49.81
21433;BME280;18592;49.708;10.900;2023-07-02T03:28:43;97905.22;;;21.89;49.66
21433;BME280;18592;49.708;10.900;2023-07-02T03:30:43;97908.66;;;21.86;49.75
21433;BME280;18592;49.708;10.900;2023-07-02T03:32:43;97911.44;;;21.86;49.56
21433;BME280;18592;49.708;10.900;2023-07-02T03:34:44;97904.56;;;21.84;49.33
21433;BME280;18592;49.708;10.900;2023-07-02T03:36:44;97905.75;;;21.83;49.36
21433;BME280;18592;49.708;10.900;2023-07-02T03:38:44;97907.69;;;21.82;49.45
21433;BME280;18592;49.708;10.900;2023-07-02T03:40:45;97910.78;;;21.81;49.39
21433;BME280;18592;49.708;10.900;2023-07-02T03:42:45;97906.72;;;21.78;49.67
21433;BME280;18592;49.708;10.900;2023-07-02T03:44:46;97917.38;;;21.76;49.61
21433;BME280;18592;49.708;10.900;2023-07-02T03:46:46;97915.75;;;21.75;49.77
21433;BME280;18592;49.708;10.900;2023-07-02T03:48:46;97915.25;;;21.73;49.81
21433;BME280;18592;49.708;10.900;2023-07-02T03:50:47;97928.34;;;21.73;50.00
21433;BME280;18592;49.708;10.900;2023-07-02T03:52:47;97927.06;;;21.70;49.72
21433;BME280;18592;49.708;10.900;2023-07-02T03:54:48;97927.38;;;21.69;49.57
21433;BME280;18592;49.708;10.900;2023-07-02T03:56:48;97935.25;;;21.67;50.02
21433;BME280;18592;49.708;10.900;2023-07-02T03:59:03;97928.88;;;21.66;49.73
21433;BME280;18592;49.708;10.900;2023-07-02T04:01:04;97934.78;;;21.65;49.71
21433;BME280;18592;49.708;10.900;2023-07-02T04:03:04;97932.66;;;21.62;50.19
21433;BME280;18592;49.708;10.900;2023-07-02T04:05:05;97937.88;;;21.63;49.85
21433;BME280;18592;49.708;10.900;2023-07-02T04:07:06;97937.41;;;21.61;49.92
21433;BME280;18592;49.708;10.900;2023-07-02T04:09:06;97941.66;;;21.59;50.29
21433;BME280;18592;49.708;10.900;2023-07-02T04:11:07;97936.94;;;21.59;50.24
21433;BME280;18592;49.708;10.900;2023-07-02T04:13:07;97951.94;;;21.58;50.17
21433;BME280;18592;49.708;10.900;2023-07-02T04:15:08;97947.88;;;21.56;49.93
21433;BME280;18592;49.708;10.900;2023-07-02T04:17:09;97952.63;;;21.55;50.20
21433;BME280;18592;49.708;10.900;2023-07-02T04:19:09;97962.09;;;21.54;50.12
21433;BME280;18592;49.708;10.900;2023-07-02T04:21:10;97968.47;;;21.55;50.13
21433;BME280;18592;49.708;10.900;2023-07-02T04:23:16;97964.06;;;21.53;50.04
21433;BME280;18592;49.708;10.900;2023-07-02T04:25:20;97960.47;;;21.53;49.88
21433;BME280;18592;49.708;10.900;2023-07-02T04:27:20;97966.00;;;21.53;50.08
21433;BME280;18592;49.708;10.900;2023-07-02T04:29:20;97964.41;;;21.52;50.07
21433;BME280;18592;49.708;10.900;2023-07-02T04:31:21;97967.19;;;21.52;50.36
21433;BME280;18592;49.708;10.900;2023-07-02T04:33:21;97963.59;;;21.51;50.04
21433;BME280;18592;49.708;10.900;2023-07-02T04:35:22;97966.34;;;21.51;49.94
21433;BME280;18592;49.708;10.900;2023-07-02T04:37:22;97964.72;;;21.50;49.88
21433;BME280;18592;49.708;10.900;2023-07-02T04:39:22;97969.13;;;21.51;50.00
21433;BME280;18592;49.708;10.900;2023-07-02T04:41:23;97971.91;;;21.51;49.76
21433;BME280;18592;49.708;10.900;2023-07-02T04:43:23;97973.03;;;21.50;49.83
21433;BME280;18592;49.708;10.900;2023-07-02T04:45:25;97965.53;;;21.51;49.65
21433;BME280;18592;49.708;10.900;2023-07-02T04:47:26;97974.69;;;21.51;49.86
21433;BME280;18592;49.708;10.900;2023-07-02T04:49:26;97973.84;;;21.51;49.92
21433;BME280;18592;49.708;10.900;2023-07-02T04:51:27;97982.19;;;21.51;49.83
21433;BME280;18592;49.708;10.900;2023-07-02T04:53:27;97982.53;;;21.49;49.91
21433;BME280;18592;49.708;10.900;2023-07-02T04:55:28;97978.59;;;21.50;49.48
21433;BME280;18592;49.708;10.900;2023-07-02T04:57:28;97989.69;;;21.50;49.41
21433;BME280;18592;49.708;10.900;2023-07-02T04:59:28;97987.72;;;21.51;49.79
21433;BME280;18592;49.708;10.900;2023-07-02T05:01:29;97985.78;;;21.51;49.60
21433;BME280;18592;49.708;10.900;2023-07-02T05:03:29;97995.72;;;21.52;49.74
21433;BME280;18592;49.708;10.900;2023-07-02T05:05:30;97987.41;;;21.52;49.90
21433;BME280;18592;49.708;10.900;2023-07-02T05:07:30;97993.06;;;21.56;49.96
21433;BME280;18592;49.708;10.900;2023-07-02T05:09:45;97994.25;;;21.55;49.62
21433;BME280;18592;49.708;10.900;2023-07-02T05:11:45;97979.56;;;21.55;49.92
21433;BME280;18592;49.708;10.900;2023-07-02T05:14:00;98000.72;;;21.59;49.73
21433;BME280;18592;49.708;10.900;2023-07-02T05:16:01;97994.50;;;21.62;49.68
21433;BME280;18592;49.708;10.900;2023-07-02T05:18:01;97993.34;;;21.63;49.74
21433;BME280;18592;49.708;10.900;2023-07-02T05:20:03;97995.47;;;21.66;49.81
21433;BME280;18592;49.708;10.900;2023-07-02T05:22:05;97999.19;;;21.70;49.76
21433;BME280;18592;49.708;10.900;2023-07-02T05:24:06;97998.84;;;21.72;49.41
21433;BME280;18592;49.708;10.900;2023-07-02T05:26:06;98004.06;;;21.73;49.12
21433;BME280;18592;49.708;10.900;2023-07-02T05:28:06;98000.13;;;21.74;49.48
21433;BME280;18592;49.708;10.900;2023-07-02T05:30:14;98007.78;;;21.77;49.32
21433;BME280;18592;49.708;10.900;2023-07-02T05:32:15;98016.25;;;21.81;49.24
21433;BME280;18592;49.708;10.900;2023-07-02T05:34:15;98014.75;;;21.83;49.10
21433;BME280;18592;49.708;10.900;2023-07-02T05:36:16;98009.72;;;21.85;49.13
21433;BME280;18592;49.708;10.900;2023-07-02T05:38:21;98015.75;;;21.87;49.01
21433;BME280;18592;49.708;10.900;2023-07-02T05:40:21;98007.91;;;21.89;49.05
21433;BME280;18592;49.708;10.900;2023-07-02T05:42:22;98008.84;;;21.93;48.84
21433;BME280;18592;49.708;10.900;2023-07-02T05:44:22;98016.47;;;21.96;48.88
21433;BME280;18592;49.708;10.900;2023-07-02T05:46:23;98013.03;;;21.99;48.87
21433;BME280;18592;49.708;10.900;2023-07-02T05:48:24;98011.22;;;22.03;48.69
21433;BME280;18592;49.708;10.900;2023-07-02T05:50:41;98017.25;;;22.05;48.54
21433;BME280;18592;49.708;10.900;2023-07-02T05:52:42;98027.69;;;22.08;48.39
21433;BME280;18592;49.708;10.900;2023-07-02T05:54:42;98017.50;;;22.12;48.20
21433;BME280;18592;49.708;10.900;2023-07-02T05:56:53;98020.75;;;22.14;48.02
21433;BME280;18592;49.708;10.900;2023-07-02T05:58:54;98012.22;;;22.20;48.26
21433;BME280;18592;49.708;10.900;2023-07-02T06:00:54;98022.66;;;22.23;47.95
21433;BME280;18592;49.708;10.900;2023-07-02T06:02:57;98020.13;;;22.30;47.92
21433;BME280;18592;49.708;10.900;2023-07-02T06:04:58;98016.00;;;22.36;48.12
21433;BME280;18592;49.708;10.900;2023-07-02T06:06:58;98013.94;;;22.45;47.61
21433;BME280;18592;49.708;10.900;2023-07-02T06:09:23;98023.81;;;22.54;47.59
21433;BME280;18592;49.708;10.900;2023-07-02T06:11:24;98026.53;;;22.63;47.14
21433;BME280;18592;49.708;10.900;2023-07-02T06:13:24;98029.56;;;22.70;47.05
21433;BME280;18592;49.708;10.900;2023-07-02T06:15:24;98025.44;;;22.76;46.88
21433;BME280;18592;49.708;10.900;2023-07-02T06:17:25;98033.88;;;22.80;46.58
21433;BME280;18592;49.708;10.900;2023-07-02T06:19:25;98035.66;;;22.84;46.59
21433;BME280;18592;49.708;10.900;2023-07-02T06:21:25;98025.91;;;22.90;46.31
21433;BME280;18592;49.708;10.900;2023-07-02T06:23:30;98029.16;;;22.92;46.01
21433;BME280;18592;49.708;10.900;2023-07-02T06:25:39;98040.41;;;22.96;45.94
21433;BME280;18592;49.708;10.900;2023-07-02T06:27:39;98045.97;;;22.96;45.54
21433;BME280;18592;49.708;10.900;2023-07-02T06:29:42;98039.59;;;22.95;45.67
21433;BME280;18592;49.708;10.900;2023-07-02T06:31:44;98044.00;;;22.96;45.63
21433;BME280;18592;49.708;10.900;2023-07-02T06:33:44;98053.97;;;22.97;45.43
21433;BME280;18592;49.708;10.900;2023-07-02T06:35:44;98038.91;;;22.98;45.38
21433;BME280;18592;49.708;10.900;2023-07-02T06:37:45;98041.81;;;23.02;45.41
21433;BME280;18592;49.708;10.900;2023-07-02T06:39:46;98033.72;;;23.09;45.90
21433;BME280;18592;49.708;10.900;2023-07-02T06:41:51;98037.66;;;23.20;45.82
21433;BME280;18592;49.708;10.900;2023-07-02T06:43:52;98044.75;;;23.29;45.68
21433;BME280;18592;49.708;10.900;2023-07-02T06:45:52;98024.41;;;23.38;45.73
21433;BME280;18592;49.708;10.900;2023-07-02T06:47:53;98022.31;;;23.47;45.54
21433;BME280;18592;49.708;10.900;2023-07-02T06:49:53;98033.19;;;23.52;45.18
21433;BME280;18592;49.708;10.900;2023-07-02T06:51:54;98033.78;;;23.57;44.91
21433;BME280;18592;49.708;10.900;2023-07-02T06:53:54;98042.59;;;23.59;44.73
21433;BME280;18592;49.708;10.900;2023-07-02T06:55:55;98040.38;;;23.65;44.30
21433;BME280;18592;49.708;10.900;2023-07-02T06:57:55;98041.44;;;23.72;44.43
21433;BME280;18592;49.708;10.900;2023-07-02T06:59:59;98043.16;;;23.77;43.86
21433;BME280;18592;49.708;10.900;2023-07-02T07:01:59;98041.78;;;23.83;43.87
21433;BME280;18592;49.708;10.900;2023-07-02T07:03:59;98044.78;;;23.90;43.81
21433;BME280;18592;49.708;10.900;2023-07-02T07:06:00;98041.38;;;23.96;43.49
21433;BME280;18592;49.708;10.900;2023-07-02T07:08:00;98043.22;;;24.05;43.94
21433;BME280;18592;49.708;10.900;2023-07-02T07:10:01;98040.34;;;24.13;43.70
21433;BME280;18592;49.708;10.900;2023-07-02T07:12:02;98042.16;;;24.21;43.61
21433;BME280;18592;49.708;10.900;2023-07-02T07:14:02;98042.84;;;24.30;43.39
21433;BME280;18592;49.708;10.900;2023-07-02T07:16:03;98042.22;;;24.37;43.06
21433;BME280;18592;49.708;10.900;2023-07-02T07:28:44;98046.25;;;25.07;40.50
21433;BME280;18592;49.708;10.900;2023-07-02T07:30:44;98048.28;;;24.94;40.91
21433;BME280;18592;49.708;10.900;2023-07-02T07:32:45;98052.50;;;24.88;41.13
21433;BME280;18592;49.708;10.900;2023-07-02T07:34:45;98048.69;;;24.81;40.95
21433;BME280;18592;49.708;10.900;2023-07-02T07:36:45;98061.72;;;24.77;41.17
21433;BME280;18592;49.708;10.900;2023-07-02T07:38:46;98054.88;;;24.74;41.16
21433;BME280;18592;49.708;10.900;2023-07-02T07:41:01;98055.56;;;24.71;41.08
21433;BME280;18592;49.708;10.900;2023-07-02T07:43:01;98052.34;;;24.69;40.82
21433;BME280;18592;49.708;10.900;2023-07-02T07:45:03;98061.41;;;24.66;41.13
21433;BME280;18592;49.708;10.900;2023-07-02T07:47:04;98062.09;;;24.63;40.93
21433;BME280;18592;49.708;10.900;2023-07-02T07:49:04;98064.34;;;24.57;40.68
21433;BME280;18592;49.708;10.900;2023-07-02T07:51:23;98063.06;;;24.55;40.95
21433;BME280;18592;49.708;10.900;2023-07-02T07:53:23;98069.34;;;24.52;40.82
21433;BME280;18592;49.708;10.900;2023-07-02T07:55:23;98067.25;;;24.49;40.86
21433;BME280;18592;49.708;10.900;2023-07-02T07:57:37;98070.41;;;24.47;40.91
21433;BME280;18592;49.708;10.900;2023-07-02T07:59:42;98072.03;;;24.48;41.11
21433;BME280;18592;49.708;10.900;2023-07-02T08:01:42;98069.25;;;24.48;41.02
21433;BME280;18592;49.708;10.900;2023-07-02T08:03:43;98068.44;;;24.48;41.11
21433;BME280;18592;49.708;10.900;2023-07-02T08:05:45;98066.91;;;24.50;41.19
21433;BME280;18592;49.708;10.900;2023-07-02T08:07:45;98068.56;;;24.51;41.12
21433;BME280;18592;49.708;10.900;2023-07-02T08:09:45;98064.59;;;24.52;40.81
21433;BME280;18592;49.708;10.900;2023-07-02T08:11:46;98057.84;;;24.53;41.10
21433;BME280;18592;49.708;10.900;2023-07-02T08:14:01;98057.25;;;24.60;41.41
21433;BME280;18592;49.708;10.900;2023-07-02T08:16:02;98056.72;;;24.70;41.47
21433;BME280;18592;49.708;10.900;2023-07-02T08:18:04;98060.22;;;24.79;41.59
21433;BME280;18592;49.708;10.900;2023-07-02T08:20:04;98044.94;;;24.89;41.50
21433;BME280;18592;49.708;10.900;2023-07-02T08:22:09;98053.50;;;24.96;41.24
21433;BME280;18592;49.708;10.900;2023-07-02T08:24:09;98042.91;;;25.01;41.08
21433;BME280;18592;49.708;10.900;2023-07-02T08:26:10;98054.34;;;25.12;41.70
21433;BME280;18592;49.708;10.900;2023-07-02T08:28:14;98062.25;;;25.25;41.54
21433;BME280;18592;49.708;10.900;2023-07-02T08:30:14;98063.34;;;25.37;41.50
21433;BME280;18592;49.708;10.900;2023-07-02T08:32:15;98064.81;;;25.46;41.17
21433;BME280;18592;49.708;10.900;2023-07-02T08:34:15;98068.59;;;25.54;40.92
21433;BME280;18592;49.708;10.900;2023-07-02T08:36:16;98059.13;;;25.58;40.49
21433;BME280;18592;49.708;10.900;2023-07-02T08:38:16;98074.06;;;25.66;40.78
21433;BME280;18592;49.708;10.900;2023-07-02T08:40:19;98061.91;;;25.74;40.75
21433;BME280;18592;49.708;10.900;2023-07-02T08:42:20;98064.59;;;25.86;41.16
21433;BME280;18592;49.708;10.900;2023-07-02T08:44:21;98051.25;;;25.95;40.50
21433;BME280;18592;49.708;10.900;2023-07-02T08:46:22;98064.66;;;26.05;40.55
21433;BME280;18592;49.708;10.900;2023-07-02T08:48:23;98066.53;;;26.17;40.53
21433;BME280;18592;49.708;10.900;2023-07-02T08:50:24;98068.41;;;26.28;41.02
21433;BME280;18592;49.708;10.900;2023-07-02T08:52:25;98072.66;;;26.41;40.40
21433;BME280;18592;49.708;10.900;2023-07-02T08:54:25;98072.06;;;26.52;40.61
21433;BME280;18592;49.708;10.900;2023-07-02T08:56:26;98060.78;;;26.64;40.72
21433;BME280;18592;49.708;10.900;2023-07-02T08:58:27;98061.91;;;26.78;40.99
21433;BME280;18592;49.708;10.900;2023-07-02T09:00:39;98070.56;;;26.92;40.77
21433;BME280;18592;49.708;10.900;2023-07-02T09:02:39;98076.34;;;27.03;40.60
21433;BME280;18592;49.708;10.900;2023-07-02T09:04:40;98075.69;;;27.09;39.84
21433;BME280;18592;49.708;10.900;2023-07-02T09:06:40;98072.22;;;27.16;40.01
21433;BME280;18592;49.708;10.900;2023-07-02T09:08:40;98077.50;;;27.21;39.38
21433;BME280;18592;49.708;10.900;2023-07-02T09:10:41;98069.97;;;27.25;39.17
21433;BME280;18592;49.708;10.900;2023-07-02T09:12:41;98073.34;;;27.34;39.28
21433;BME280;18592;49.708;10.900;2023-07-02T09:14:42;98064.78;;;27.46;39.65
21433;BME280;18592;49.708;10.900;2023-07-02T09:16:42;98075.06;;;27.61;40.32
21433;BME280;18592;49.708;10.900;2023-07-02T09:18:58;98085.69;;;27.75;39.73
21433;BME280;18592;49.708;10.900;2023-07-02T09:20:58;98075.88;;;27.88;39.67
21433;BME280;18592;49.708;10.900;2023-07-02T09:22:59;98078.50;;;28.00;40.01
21433;BME280;18592;49.708;10.900;2023-07-02T09:25:01;98082.34;;;28.15;40.13
21433;BME280;18592;49.708;10.900;2023-07-02T09:27:02;98081.72;;;28.28;40.21
21433;BME280;18592;49.708;10.900;2023-07-02T09:29:02;98081.94;;;28.43;40.03
21433;BME280;18592;49.708;10.900;2023-07-02T09:31:04;98086.16;;;28.59;40.33
21433;BME280;18592;49.708;10.900;2023-07-02T09:33:07;98063.97;;;28.77;40.46
21433;BME280;18592;49.708;10.900;2023-07-02T09:35:08;98071.78;;;28.94;40.54
21433;BME280;18592;49.708;10.900;2023-07-02T09:37:09;98064.34;;;29.09;40.09
21433;BME280;18592;49.708;10.900;2023-07-02T09:39:14;98073.31;;;29.21;39.64
21433;BME280;18592;49.708;10.900;2023-07-02T09:41:14;98062.56;;;29.30;39.22
21433;BME280;18592;49.708;10.900;2023-07-02T09:43:16;98067.47;;;29.37;39.20
21433;BME280;18592;49.708;10.900;2023-07-02T09:45:16;98065.53;;;29.44;38.45
21433;BME280;18592;49.708;10.900;2023-07-02T09:47:18;98071.97;;;29.48;38.18
21433;BME280;18592;49.708;10.900;2023-07-02T09:49:20;98069.16;;;29.48;37.59
21433;BME280;18592;49.708;10.900;2023-07-02T09:51:21;98069.16;;;29.48;37.15
21433;BME280;18592;49.708;10.900;2023-07-02T09:53:33;98072.75;;;29.45;36.34
21433;BME280;18592;49.708;10.900;2023-07-02T09:55:55;98065.50;;;29.41;36.92
21433;BME280;18592;49.708;10.900;2023-07-02T09:58:18;98077.06;;;29.36;36.49
21433;BME280;18592;49.708;10.900;2023-07-02T10:00:33;98073.81;;;29.30;36.52
21433;BME280;18592;49.708;10.900;2023-07-02T10:02:40;98068.59;;;29.29;36.66
21433;BME280;18592;49.708;10.900;2023-07-02T10:04:45;98080.59;;;29.26;35.80
21433;BME280;18592;49.708;10.900;2023-07-02T10:09:02;98085.38;;;29.22;36.21
21433;BME280;18592;49.708;10.900;2023-07-02T10:11:09;98083.66;;;29.17;36.05
21433;BME280;18592;49.708;10.900;2023-07-02T10:13:10;98086.06;;;29.15;36.15
21433;BME280;18592;49.708;10.900;2023-07-02T10:15:10;98094.06;;;29.13;36.17
21433;BME280;18592;49.708;10.900;2023-07-02T10:17:31;98082.34;;;29.04;35.51
21433;BME280;18592;49.708;10.900;2023-07-02T10:20:04;98095.50;;;29.00;35.88
21433;BME280;18592;49.708;10.900;2023-07-02T10:22:08;98086.28;;;29.00;36.03
21433;BME280;18592;49.708;10.900;2023-07-02T10:24:13;98091.09;;;28.99;35.67
21433;BME280;18592;49.708;10.900;2023-07-02T10:26:16;98087.91;;;29.01;35.92
21433;BME280;18592;49.708;10.900;2023-07-02T10:28:20;98091.19;;;29.06;35.69
21433;BME280;18592;49.708;10.900;2023-07-02T10:30:33;98090.84;;;29.11;35.60
21433;BME280;18592;49.708;10.900;2023-07-02T10:32:35;98096.97;;;29.20;35.83
21433;BME280;18592;49.708;10.900;2023-07-02T10:34:35;98111.88;;;29.24;35.53
21433;BME280;18592;49.708;10.900;2023-07-02T10:36:54;98099.84;;;29.27;35.36
21433;BME280;18592;49.708;10.900;2023-07-02T10:39:01;98091.41;;;29.24;34.98
21433;BME280;18592;49.708;10.900;2023-07-02T10:41:03;98099.00;;;29.23;35.29
21433;BME280;18592;49.708;10.900;2023-07-02T10:43:04;98096.97;;;29.20;35.37
21433;BME280;18592;49.708;10.900;2023-07-02T10:45:05;98093.34;;;29.20;35.60
21433;BME280;18592;49.708;10.900;2023-07-02T10:47:05;98098.50;;;29.18;35.53
21433;BME280;18592;49.708;10.900;2023-07-02T10:49:05;98094.53;;;29.19;35.49
21433;BME280;18592;49.708;10.900;2023-07-02T10:51:12;98095.38;;;29.23;35.33
21433;BME280;18592;49.708;10.900;2023-07-02T10:53:17;98101.88;;;29.27;35.20